Time;durP1;ratioP1;P1;durP2;ratioP2;P2;SDS_P1;SDS_P2;PMS_P1;PMS_P2;Temp;Humidity;BMP_temperature;BMP_pressure;BME280_temperature;BME280_humidity;BME280_pressure;Samples;Min_cycle;Max_cycle;Signal;HPM_P1;HPM_P2
2022/04/25 00:00:49;;;;;;;49.45;25.50;;;;;;;;;;5033213;28;20385;-89
2022/04/25 00:03:15;;;;;;;49.95;28.73;;;;;;;;;;5036277;28;20033;-89
2022/04/25 00:05:46;;;;;;;53.78;28.08;;;;;;;;;;5033974;28;20037;-90
2022/04/25 00:08:12;;;;;;;41.63;24.70;;;;;;;;;;5030757;28;20045;-90
2022/04/25 00:10:39;;;;;;;41.80;25.40;;;;;;;;;;5038211;28;20064;-90
2022/04/25 00:13:06;;;;;;;43.20;24.38;;;;;;;;;;5035604;28;20037;-91
2022/04/25 00:15:33;;;;;;;44.28;26.83;;;;;;;;;;5037679;28;20040;-90
2022/04/25 00:17:59;;;;;;;42.28;25.13;;;;;;;;;;5038369;28;20468;-90
2022/04/25 00:20:27;;;;;;;38.50;23.90;;;;;;;;;;5039403;28;20040;-91
2022/04/25 00:22:53;;;;;;;36.95;22.98;;;;;;;;;;5040393;28;20061;-90
2022/04/25 00:25:31;;;;;;;34.08;21.42;;;;;;;;;;5036118;28;20044;-90
2022/04/25 00:27:58;;;;;;;41.08;25.35;;;;;;;;;;5032164;28;20045;-90
2022/04/25 00:30:24;;;;;;;40.92;25.63;;;;;;;;;;5036388;28;20060;-90
2022/04/25 00:32:51;;;;;;;44.67;25.48;;;;;;;;;;5037221;28;20122;-91
2022/04/25 00:35:20;;;;;;;34.75;22.08;;;;;;;;;;5066124;28;20039;-91
2022/04/25 00:37:47;;;;;;;41.22;25.20;;;;;;;;;;5029666;28;20109;-90
2022/04/25 00:40:16;;;;;;;39.58;24.08;;;;;;;;;;5037662;28;20060;-91
2022/04/25 00:42:42;;;;;;;40.97;22.20;;;;;;;;;;5032448;28;20118;-90
2022/04/25 00:45:23;;;;;;;35.15;20.35;;;;;;;;;;5036582;28;20033;-91
2022/04/25 00:47:49;;;;;;;34.80;18.23;;;;;;;;;;5031732;28;20480;-90
2022/04/25 00:50:39;;;;;;;30.15;18.13;;;;;;;;;;5046788;28;20090;-90
2022/04/25 00:53:08;;;;;;;28.38;16.63;;;;;;;;;;4994633;28;20091;-90
2022/04/25 00:55:37;;;;;;;30.80;17.58;;;;;;;;;;5030737;28;20349;-92
2022/04/25 00:58:03;;;;;;;39.28;19.85;;;;;;;;;;5038236;28;20079;-89
2022/04/25 01:00:31;;;;;;;28.30;16.42;;;;;;;;;;5037843;28;20555;-90
2022/04/25 01:02:57;;;;;;;21.17;13.52;;;;;;;;;;5035581;28;20479;-88
2022/04/25 01:05:29;;;;;;;21.50;13.13;;;;;;;;;;5040217;28;20930;-91
2022/04/25 01:07:55;;;;;;;19.55;12.52;;;;;;;;;;5037001;28;20033;-89
2022/04/25 01:10:22;;;;;;;23.52;11.25;;;;;;;;;;5037243;28;20021;-89
2022/04/25 01:12:48;;;;;;;14.52;8.50;;;;;;;;;;5035614;28;20040;-89
2022/04/25 01:15:15;;;;;;;18.33;8.77;;;;;;;;;;5053571;28;20464;-89
2022/04/25 01:17:41;;;;;;;18.92;8.52;;;;;;;;;;5043238;28;20385;-88
2022/04/25 01:20:10;;;;;;;19.80;8.32;;;;;;;;;;5030829;28;20036;-90
2022/04/25 01:22:47;;;;;;;17.92;8.25;;;;;;;;;;5053266;28;20033;-88
2022/04/25 01:28:04;;;;;;;23.58;8.68;;;;;;;;;;5053458;28;20098;-91
2022/04/25 01:30:31;;;;;;;17.20;8.57;;;;;;;;;;5035941;28;20033;-90
2022/04/25 01:32:58;;;;;;;21.00;8.52;;;;;;;;;;5044368;28;20044;-91
2022/04/25 01:35:32;;;;;;;18.77;8.13;;;;;;;;;;5038238;28;20028;-90
2022/04/25 01:37:59;;;;;;;15.80;7.80;;;;;;;;;;5034519;28;20048;-92
2022/04/25 01:40:57;;;;;;;16.63;7.63;;;;;;;;;;5029189;28;20037;-90
2022/04/25 01:43:23;;;;;;;15.73;7.93;;;;;;;;;;5048477;28;20435;-91
2022/04/25 01:45:54;;;;;;;17.08;7.63;;;;;;;;;;5034266;28;20085;-92
2022/04/25 01:48:21;;;;;;;15.70;7.00;;;;;;;;;;5030591;28;20128;-91
2022/04/25 01:50:53;;;;;;;18.83;8.10;;;;;;;;;;5033736;28;20075;-91
2022/04/25 01:53:22;;;;;;;15.77;7.07;;;;;;;;;;5029203;28;20067;-91
2022/04/25 01:55:49;;;;;;;21.05;7.35;;;;;;;;;;5034243;28;20048;-92
2022/04/25 01:58:16;;;;;;;18.15;7.40;;;;;;;;;;5031028;28;20048;-92
2022/04/25 02:00:57;;;;;;;15.38;7.32;;;;;;;;;;5033404;28;20074;-93
2022/04/25 02:03:24;;;;;;;13.38;7.63;;;;;;;;;;5035756;28;20128;-91
2022/04/25 02:05:52;;;;;;;18.45;8.35;;;;;;;;;;5036181;28;20033;-92
2022/04/25 02:08:19;;;;;;;19.60;8.63;;;;;;;;;;5031973;28;20037;-95
2022/04/25 02:11:20;;;;;;;25.83;8.80;;;;;;;;;;5030043;28;20037;-92
2022/04/25 02:13:47;;;;;;;23.15;10.52;;;;;;;;;;5031714;28;20041;-91
2022/04/25 02:16:51;;;;;;;24.77;12.15;;;;;;;;;;5038199;28;20058;-89
2022/04/25 02:19:17;;;;;;;22.38;10.77;;;;;;;;;;4970445;28;20093;-89
2022/04/25 02:21:52;;;;;;;27.40;12.13;;;;;;;;;;4976619;28;20038;-91
2022/04/25 02:24:19;;;;;;;25.20;13.68;;;;;;;;;;4956495;28;20034;-89
2022/04/25 02:26:52;;;;;;;28.67;15.60;;;;;;;;;;4963822;28;20041;-88
2022/04/25 02:29:20;;;;;;;23.30;13.35;;;;;;;;;;4957559;28;20046;-89
2022/04/25 02:31:47;;;;;;;14.85;7.03;;;;;;;;;;4954253;28;20486;-89
2022/04/25 02:34:15;;;;;;;16.45;7.13;;;;;;;;;;5001295;28;20113;-89
2022/04/25 02:36:41;;;;;;;15.00;6.78;;;;;;;;;;5032370;28;20598;-89
2022/04/25 02:39:15;;;;;;;12.15;5.47;;;;;;;;;;5039329;28;20599;-90
2022/04/25 02:41:41;;;;;;;15.18;5.60;;;;;;;;;;5039368;28;20029;-89
2022/04/25 02:44:21;;;;;;;15.10;4.80;;;;;;;;;;5033228;28;20480;-90
2022/04/25 02:46:47;;;;;;;13.65;5.68;;;;;;;;;;5029411;28;20591;-90
2022/04/25 02:49:15;;;;;;;11.43;5.18;;;;;;;;;;5045692;28;20772;-90
2022/04/25 02:51:51;;;;;;;13.70;5.97;;;;;;;;;;5045834;28;20036;-90
2022/04/25 02:54:18;;;;;;;8.90;3.72;;;;;;;;;;5040426;28;20029;-90
2022/04/25 02:56:44;;;;;;;8.65;3.80;;;;;;;;;;5039327;28;20045;-88
2022/04/25 02:59:10;;;;;;;11.00;4.13;;;;;;;;;;5047684;28;20537;-89
2022/04/25 03:01:39;;;;;;;9.13;5.00;;;;;;;;;;5041564;28;20032;-89
2022/04/25 03:04:05;;;;;;;8.95;3.30;;;;;;;;;;5038267;28;20033;-89
2022/04/25 03:06:40;;;;;;;4.63;2.42;;;;;;;;;;5056138;28;20472;-90
2022/04/25 03:09:06;;;;;;;5.13;2.90;;;;;;;;;;5038099;28;20025;-89
2022/04/25 03:11:39;;;;;;;6.70;1.88;;;;;;;;;;5048246;28;20033;-90
2022/04/25 03:14:06;;;;;;;7.50;2.88;;;;;;;;;;5041469;28;20487;-91
2022/04/25 03:16:40;;;;;;;6.18;3.08;;;;;;;;;;5053730;28;20064;-90
2022/04/25 03:19:09;;;;;;;10.45;4.10;;;;;;;;;;5037961;28;20120;-92
2022/04/25 03:21:54;;;;;;;10.23;3.38;;;;;;;;;;5033308;28;20074;-91
2022/04/25 03:24:20;;;;;;;13.13;3.03;;;;;;;;;;5045135;28;20029;-93
2022/04/25 03:26:47;;;;;;;8.20;3.05;;;;;;;;;;5040179;28;20079;-92
2022/04/25 03:29:14;;;;;;;8.30;2.22;;;;;;;;;;5040772;28;20033;-93
2022/04/25 03:31:59;;;;;;;5.63;2.30;;;;;;;;;;5044952;28;20033;-92
2022/04/25 03:34:25;;;;;;;6.47;1.85;;;;;;;;;;5038702;28;20033;-93
2022/04/25 03:36:56;;;;;;;7.75;2.22;;;;;;;;;;5038674;28;20119;-92
2022/04/25 03:39:22;;;;;;;7.13;2.35;;;;;;;;;;5038195;28;20031;-93
2022/04/25 03:41:50;;;;;;;6.68;2.00;;;;;;;;;;5056507;28;20029;-92
2022/04/25 03:44:16;;;;;;;4.85;1.98;;;;;;;;;;5040978;28;20030;-93
2022/04/25 03:46:43;;;;;;;5.88;2.08;;;;;;;;;;5038641;28;20119;-92
2022/04/25 03:49:09;;;;;;;4.72;2.55;;;;;;;;;;5052460;28;20025;-92
2022/04/25 03:51:41;;;;;;;6.57;2.50;;;;;;;;;;5054058;28;20041;-92
2022/04/25 03:54:07;;;;;;;10.50;2.33;;;;;;;;;;5056722;28;20035;-92
2022/04/25 03:59:18;;;;;;;5.57;2.28;;;;;;;;;;5055543;28;20156;-92
2022/04/25 04:01:54;;;;;;;5.95;2.10;;;;;;;;;;5053730;28;20033;-91
2022/04/25 04:04:20;;;;;;;7.45;2.38;;;;;;;;;;5035053;28;20112;-92
2022/04/25 04:07:02;;;;;;;4.07;2.30;;;;;;;;;;5028248;28;20040;-93
2022/04/25 04:12:32;;;;;;;9.90;2.30;;;;;;;;;;5062302;28;20562;-92
2022/04/25 04:14:59;;;;;;;7.65;2.85;;;;;;;;;;5050317;28;20056;-93
2022/04/25 04:17:26;;;;;;;7.93;2.67;;;;;;;;;;5041092;28;20037;-93
2022/04/25 04:19:56;;;;;;;5.10;1.92;;;;;;;;;;5037396;28;20035;-92
2022/04/25 04:22:25;;;;;;;4.45;2.70;;;;;;;;;;5036348;28;20033;-92
2022/04/25 04:24:52;;;;;;;5.30;2.15;;;;;;;;;;5032095;28;20111;-92
2022/04/25 04:27:21;;;;;;;5.72;2.38;;;;;;;;;;5026207;28;20053;-92
2022/04/25 04:29:47;;;;;;;8.57;2.80;;;;;;;;;;5037917;28;20499;-91
2022/04/25 04:32:14;;;;;;;5.35;2.40;;;;;;;;;;5037201;28;20060;-90
2022/04/25 04:34:40;;;;;;;6.20;2.00;;;;;;;;;;5029462;28;20040;-91
2022/04/25 04:37:07;;;;;;;7.72;2.42;;;;;;;;;;5035175;28;20123;-92
2022/04/25 04:39:33;;;;;;;6.32;3.08;;;;;;;;;;5045905;28;20031;-90
2022/04/25 04:42:00;;;;;;;4.45;2.17;;;;;;;;;;4686286;28;10000215;-90
2022/04/25 04:44:26;;;;;;;5.78;2.33;;;;;;;;;;4684878;28;10000408;-90
2022/04/25 04:46:53;;;;;;;7.95;2.67;;;;;;;;;;5032720;28;20037;-91
2022/04/25 04:49:19;;;;;;;5.82;2.30;;;;;;;;;;5027329;28;20065;-91
2022/04/25 04:51:45;;;;;;;5.32;2.22;;;;;;;;;;4681834;28;10000532;-91
2022/04/25 04:54:12;;;;;;;5.25;1.55;;;;;;;;;;5032082;28;20087;-91
2022/04/25 04:56:38;;;;;;;7.72;2.60;;;;;;;;;;5030646;28;20566;-91
2022/04/25 04:59:05;;;;;;;3.78;1.42;;;;;;;;;;5026200;28;20116;-91
2022/04/25 05:01:32;;;;;;;5.15;1.90;;;;;;;;;;5030355;28;20075;-91
2022/04/25 05:03:58;;;;;;;3.42;1.60;;;;;;;;;;5029517;28;20522;-91
2022/04/25 05:06:28;;;;;;;6.35;2.28;;;;;;;;;;5051322;28;20033;-91
2022/04/25 05:08:55;;;;;;;6.70;2.90;;;;;;;;;;4685421;28;9999687;-91
2022/04/25 05:11:22;;;;;;;12.25;5.25;;;;;;;;;;5033905;28;20120;-91
2022/04/25 05:13:48;;;;;;;14.75;9.07;;;;;;;;;;5041248;28;20041;-91
2022/04/25 05:16:15;;;;;;;14.75;8.77;;;;;;;;;;5027083;28;20060;-90
2022/04/25 05:18:44;;;;;;;11.20;7.35;;;;;;;;;;5031768;28;20029;-91
2022/04/25 05:21:13;;;;;;;11.18;5.10;;;;;;;;;;5037636;28;20044;-88
2022/04/25 05:23:44;;;;;;;7.90;3.78;;;;;;;;;;5030383;28;20040;-90
2022/04/25 05:26:10;;;;;;;4.97;1.60;;;;;;;;;;5034294;28;20042;-90
2022/04/25 05:28:38;;;;;;;4.55;1.52;;;;;;;;;;5054052;28;20094;-88
2022/04/25 05:31:04;;;;;;;4.57;1.35;;;;;;;;;;5038498;28;20510;-89
2022/04/25 05:33:32;;;;;;;7.90;1.77;;;;;;;;;;5046723;28;20045;-89
2022/04/25 05:35:59;;;;;;;4.82;1.73;;;;;;;;;;4686643;28;10000003;-92
2022/04/25 05:38:25;;;;;;;5.65;1.77;;;;;;;;;;5038499;28;20051;-91
2022/04/25 05:40:53;;;;;;;8.48;1.73;;;;;;;;;;5031205;28;20034;-90
2022/04/25 05:43:23;;;;;;;2.55;0.88;;;;;;;;;;5050318;28;20037;-90
2022/04/25 05:46:18;;;;;;;5.00;1.15;;;;;;;;;;4686259;28;9999607;-89
2022/04/25 05:54:18;;;;;;;3.00;0.95;;;;;;;;;;5047522;28;20825;-89
2022/04/25 05:57:16;;;;;;;4.38;1.42;;;;;;;;;;5039900;28;20039;-91
2022/04/25 05:59:42;;;;;;;4.00;1.30;;;;;;;;;;5042580;28;20041;-91
2022/04/25 06:02:22;;;;;;;3.05;1.08;;;;;;;;;;5036564;28;20029;-91
2022/04/25 06:04:48;;;;;;;2.80;1.60;;;;;;;;;;5036145;28;20139;-91
2022/04/25 06:07:45;;;;;;;4.03;1.30;;;;;;;;;;5037543;28;21045;-89
2022/04/25 06:10:12;;;;;;;3.28;1.40;;;;;;;;;;5039631;28;20061;-91
2022/04/25 06:12:41;;;;;;;5.80;2.03;;;;;;;;;;4333682;28;10000171;-90
2022/04/25 06:15:09;;;;;;;4.40;2.00;;;;;;;;;;5028381;28;20551;-92
2022/04/25 06:17:50;;;;;;;5.90;2.00;;;;;;;;;;5038358;28;20067;-91
2022/04/25 06:20:17;;;;;;;3.80;2.20;;;;;;;;;;5025616;28;20064;-91
2022/04/25 06:22:54;;;;;;;4.07;1.88;;;;;;;;;;5031984;28;20029;-91
2022/04/25 06:25:21;;;;;;;3.72;1.45;;;;;;;;;;5037146;28;20025;-91
2022/04/25 06:27:50;;;;;;;5.75;2.00;;;;;;;;;;5042633;28;20033;-92
2022/04/25 06:30:16;;;;;;;8.23;2.70;;;;;;;;;;5040259;28;20120;-92
2022/04/25 06:32:43;;;;;;;9.10;2.47;;;;;;;;;;5042655;28;20036;-92
2022/04/25 06:35:10;;;;;;;8.70;2.53;;;;;;;;;;5038141;28;20049;-92
2022/04/25 06:37:37;;;;;;;6.78;2.85;;;;;;;;;;5046943;28;20106;-92
2022/04/25 06:40:40;;;;;;;6.47;2.70;;;;;;;;;;5027460;28;20094;-92
2022/04/25 06:43:20;;;;;;;10.05;3.08;;;;;;;;;;5035962;28;20041;-93
2022/04/25 06:45:46;;;;;;;7.22;2.83;;;;;;;;;;5041231;28;20052;-93
2022/04/25 06:48:17;;;;;;;5.82;2.08;;;;;;;;;;5039488;28;20120;-93
2022/04/25 06:50:43;;;;;;;7.70;1.85;;;;;;;;;;5037838;28;20033;-93
2022/04/25 06:53:35;;;;;;;6.40;1.98;;;;;;;;;;5039788;28;20029;-94
2022/04/25 06:56:01;;;;;;;5.00;1.42;;;;;;;;;;5039358;28;20036;-94
2022/04/25 06:58:52;;;;;;;11.80;2.40;;;;;;;;;;5039384;28;20377;-93
2022/04/25 07:01:28;;;;;;;5.13;1.77;;;;;;;;;;5014898;28;20068;-94
2022/04/25 07:03:54;;;;;;;6.10;1.90;;;;;;;;;;5041022;28;20068;-93
2022/04/25 07:06:40;;;;;;;7.72;2.00;;;;;;;;;;5036375;28;20033;-93
2022/04/25 07:09:07;;;;;;;7.10;1.80;;;;;;;;;;5026899;28;20115;-93
2022/04/25 07:11:46;;;;;;;4.68;2.13;;;;;;;;;;5039535;28;20037;-94
2022/04/25 07:14:21;;;;;;;7.32;2.38;;;;;;;;;;5039105;28;20033;-94
2022/04/25 07:19:51;;;;;;;4.75;2.42;;;;;;;;;;5046895;28;20366;-93
2022/04/25 07:30:54;;;;;;;5.55;2.47;;;;;;;;;;5056960;28;20040;-95
2022/04/25 07:33:21;;;;;;;6.20;2.60;;;;;;;;;;5051716;28;20087;-94
2022/04/25 07:35:48;;;;;;;6.97;2.80;;;;;;;;;;5047659;28;20539;-94
2022/04/25 07:38:17;;;;;;;7.65;2.38;;;;;;;;;;5039944;28;20029;-94
2022/04/25 07:40:44;;;;;;;8.85;3.05;;;;;;;;;;5039045;28;20116;-93
2022/04/25 07:43:29;;;;;;;4.95;1.70;;;;;;;;;;5024254;28;20060;-95
2022/04/25 07:45:56;;;;;;;4.90;2.53;;;;;;;;;;5034159;28;20025;-93
2022/04/25 07:48:22;;;;;;;5.45;1.90;;;;;;;;;;5031294;28;20116;-95
2022/04/25 07:53:59;;;;;;;5.38;2.00;;;;;;;;;;5044204;28;20036;-93
2022/04/25 07:56:28;;;;;;;7.47;2.53;;;;;;;;;;5059270;28;20033;-92
2022/04/25 07:59:07;;;;;;;4.50;2.85;;;;;;;;;;5041621;28;20025;-94
2022/04/25 08:01:34;;;;;;;6.18;2.55;;;;;;;;;;5048358;28;20529;-94
2022/04/25 08:04:00;;;;;;;11.00;2.83;;;;;;;;;;5038912;28;20116;-94
2022/04/25 08:06:46;;;;;;;8.25;2.55;;;;;;;;;;5039052;28;20036;-94
2022/04/25 08:09:13;;;;;;;7.78;2.63;;;;;;;;;;5039180;28;20039;-94
2022/04/25 08:11:40;;;;;;;5.05;2.53;;;;;;;;;;5038965;28;20423;-94
2022/04/25 08:19:44;;;;;;;6.32;2.78;;;;;;;;;;5054846;28;20087;-92
2022/04/25 08:22:10;;;;;;;5.47;2.90;;;;;;;;;;5037870;28;20510;-94
2022/04/25 08:24:37;;;;;;;6.93;3.17;;;;;;;;;;5038261;28;20127;-95
2022/04/25 08:30:24;;;;;;;11.15;3.20;;;;;;;;;;5056574;28;20438;-94
2022/04/25 08:32:51;;;;;;;7.93;2.90;;;;;;;;;;5022411;28;20086;-93
2022/04/25 08:35:18;;;;;;;8.85;2.45;;;;;;;;;;5029176;28;20480;-93
2022/04/25 08:40:56;;;;;;;8.10;2.47;;;;;;;;;;5056407;28;20028;-94
2022/04/25 08:46:27;;;;;;;5.97;1.70;;;;;;;;;;5057591;28;20108;-94
2022/04/25 08:48:59;;;;;;;8.73;2.20;;;;;;;;;;5015292;28;20048;-87
2022/04/25 08:51:26;;;;;;;5.45;1.73;;;;;;;;;;5045879;28;20033;-88
2022/04/25 08:53:54;;;;;;;8.30;2.25;;;;;;;;;;5031366;28;20048;-90
2022/04/25 08:56:23;;;;;;;5.55;1.77;;;;;;;;;;5034790;28;20029;-89
2022/04/25 08:58:50;;;;;;;8.18;1.33;;;;;;;;;;5033269;28;20029;-89
2022/04/25 09:01:17;;;;;;;4.20;1.33;;;;;;;;;;5034581;28;20343;-89
2022/04/25 09:03:55;;;;;;;7.80;1.67;;;;;;;;;;5035672;28;20073;-89
2022/04/25 09:06:21;;;;;;;6.28;2.03;;;;;;;;;;5019585;28;20484;-88
2022/04/25 09:08:55;;;;;;;6.18;2.70;;;;;;;;;;5047008;28;20064;-89
2022/04/25 09:14:06;;;;;;;11.85;2.63;;;;;;;;;;5052177;28;20399;-88
2022/04/25 09:16:39;;;;;;;5.82;1.92;;;;;;;;;;5055570;28;20091;-92
2022/04/25 09:19:06;;;;;;;6.60;1.60;;;;;;;;;;5053286;28;20141;-91
2022/04/25 09:21:40;;;;;;;6.72;1.60;;;;;;;;;;5039358;28;20534;-91
2022/04/25 09:24:20;;;;;;;5.32;1.30;;;;;;;;;;5052452;28;20123;-93
2022/04/25 09:27:09;;;;;;;5.95;1.83;;;;;;;;;;5063997;28;20533;-94
2022/04/25 09:29:51;;;;;;;3.97;1.38;;;;;;;;;;5036714;28;20097;-93
2022/04/25 09:32:18;;;;;;;4.85;1.30;;;;;;;;;;5045383;28;20033;-94
2022/04/25 09:38:26;;;;;;;9.23;1.70;;;;;;;;;;5055610;28;20139;-94
2022/04/25 09:40:53;;;;;;;3.13;1.30;;;;;;;;;;5042775;28;20035;-92
2022/04/25 09:43:31;;;;;;;5.05;1.50;;;;;;;;;;5043151;28;20537;-91
2022/04/25 09:46:02;;;;;;;4.50;1.13;;;;;;;;;;5046232;28;20030;-90
2022/04/25 09:48:28;;;;;;;4.50;1.42;;;;;;;;;;5047953;28;20480;-90
2022/04/25 09:54:01;;;;;;;4.60;1.20;;;;;;;;;;5050000;28;20090;-91
2022/04/25 09:56:31;;;;;;;6.55;0.95;;;;;;;;;;5053597;28;20037;-93
2022/04/25 10:02:12;;;;;;;7.50;1.65;;;;;;;;;;5053359;28;20048;-92
2022/04/25 10:04:39;;;;;;;4.22;1.10;;;;;;;;;;5051410;28;20036;-92
2022/04/25 10:07:38;;;;;;;7.47;1.30;;;;;;;;;;5046996;28;20035;-92
2022/04/25 10:10:25;;;;;;;7.53;1.40;;;;;;;;;;4954910;28;20487;-93
2022/04/25 10:13:05;;;;;;;10.18;1.52;;;;;;;;;;4990546;28;20079;-93
2022/04/25 10:15:31;;;;;;;7.32;1.30;;;;;;;;;;5036570;28;20037;-95
2022/04/25 10:17:58;;;;;;;6.53;1.40;;;;;;;;;;5036825;28;20037;-94
2022/04/25 10:22:51;;;;;;;4.22;1.50;;;;;;;;;;5038118;28;20049;-90
2022/04/25 10:25:22;;;;;;;4.80;1.52;;;;;;;;;;5031557;28;20459;-89
2022/04/25 10:27:57;;;;;;;4.65;1.15;;;;;;;;;;5035656;28;20365;-89
2022/04/25 10:30:29;;;;;;;5.35;1.23;;;;;;;;;;5032923;28;20025;-90
2022/04/25 10:35:52;;;;;;;2.80;1.30;;;;;;;;;;5036902;28;20080;-89
2022/04/25 10:44:18;;;;;;;3.60;1.30;;;;;;;;;;5056237;28;20039;-90
2022/04/25 10:49:42;;;;;;;8.52;1.80;;;;;;;;;;5038280;28;20484;-91
2022/04/25 10:55:29;;;;;;;5.18;1.88;;;;;;;;;;5053195;28;20561;-91
2022/04/25 10:58:03;;;;;;;6.30;1.55;;;;;;;;;;5044852;28;20060;-89
2022/04/25 11:00:44;;;;;;;8.52;2.00;;;;;;;;;;5032420;28;20395;-89
2022/04/25 11:03:15;;;;;;;6.20;1.63;;;;;;;;;;5031360;28;20784;-90
2022/04/25 11:05:43;;;;;;;8.45;1.25;;;;;;;;;;5035990;28;20041;-88
2022/04/25 11:08:22;;;;;;;5.38;1.23;;;;;;;;;;5030324;28;20042;-89
2022/04/25 11:11:13;;;;;;;7.82;1.90;;;;;;;;;;5027097;28;20041;-88
2022/04/25 11:13:51;;;;;;;4.93;1.90;;;;;;;;;;5030510;28;20052;-88
2022/04/25 11:16:22;;;;;;;7.93;2.03;;;;;;;;;;5040960;28;20036;-89
2022/04/25 11:19:09;;;;;;;8.88;2.53;;;;;;;;;;5032088;28;20501;-88
2022/04/25 11:21:41;;;;;;;6.57;2.50;;;;;;;;;;5031511;28;20037;-88
2022/04/25 11:24:25;;;;;;;9.20;2.42;;;;;;;;;;5031663;28;20041;-89
2022/04/25 11:26:52;;;;;;;14.10;2.25;;;;;;;;;;5045648;28;20116;-88
2022/04/25 11:29:19;;;;;;;6.80;2.40;;;;;;;;;;5040785;28;20040;-89
2022/04/25 11:31:45;;;;;;;6.65;2.50;;;;;;;;;;5031150;28;20084;-89
2022/04/25 11:34:12;;;;;;;9.00;2.53;;;;;;;;;;5029339;28;20377;-89
2022/04/25 11:36:46;;;;;;;11.98;2.03;;;;;;;;;;5033554;28;20033;-89
2022/04/25 11:41:59;;;;;;;8.02;1.75;;;;;;;;;;5046996;28;20455;-89
2022/04/25 11:44:25;;;;;;;8.05;2.83;;;;;;;;;;5033762;28;20040;-89
2022/04/25 11:46:53;;;;;;;8.73;2.78;;;;;;;;;;5027497;28;20033;-89
2022/04/25 11:49:29;;;;;;;5.43;2.20;;;;;;;;;;5029278;28;20041;-89
2022/04/25 11:51:58;;;;;;;10.00;2.40;;;;;;;;;;5031038;28;20057;-89
2022/04/25 11:54:26;;;;;;;6.03;2.63;;;;;;;;;;5047838;28;20116;-89
2022/04/25 11:56:53;;;;;;;10.50;4.90;;;;;;;;;;5032412;28;20033;-91
2022/04/25 11:59:19;;;;;;;9.25;3.83;;;;;;;;;;5032146;28;20033;-89
2022/04/25 12:01:52;;;;;;;7.22;3.20;;;;;;;;;;5036233;28;20029;-89
2022/04/25 12:04:29;;;;;;;7.30;2.90;;;;;;;;;;5033445;28;20036;-89
2022/04/25 12:07:21;;;;;;;11.48;3.58;;;;;;;;;;5035153;28;20408;-89
2022/04/25 12:15:35;;;;;;;11.45;4.07;;;;;;;;;;5049003;28;20387;-89
2022/04/25 12:18:18;;;;;;;7.15;3.80;;;;;;;;;;5046460;28;20033;-90
2022/04/25 12:20:47;;;;;;;8.18;4.25;;;;;;;;;;5050882;28;20057;-89
2022/04/25 12:23:33;;;;;;;8.30;4.25;;;;;;;;;;5018061;28;20045;-89
2022/04/25 12:26:03;;;;;;;10.75;4.10;;;;;;;;;;5011052;28;20396;-89
2022/04/25 12:28:31;;;;;;;10.07;4.32;;;;;;;;;;5011869;28;20072;-89
2022/04/25 12:30:58;;;;;;;10.65;4.28;;;;;;;;;;5013539;28;20033;-89
2022/04/25 12:33:27;;;;;;;7.70;4.07;;;;;;;;;;5013489;28;20029;-89
2022/04/25 12:36:14;;;;;;;11.85;4.47;;;;;;;;;;5011823;28;20084;-88
2022/04/25 12:38:45;;;;;;;12.82;4.75;;;;;;;;;;5014499;28;20033;-89
2022/04/25 12:41:27;;;;;;;11.35;4.85;;;;;;;;;;5017377;28;20056;-89
2022/04/25 12:46:52;;;;;;;11.32;4.18;;;;;;;;;;5032736;28;20066;-89
2022/04/25 12:52:11;;;;;;;11.43;3.30;;;;;;;;;;5031714;28;20538;-89
2022/04/25 12:54:49;;;;;;;8.15;2.38;;;;;;;;;;5031333;28;20152;-88
2022/04/25 12:57:28;;;;;;;10.63;2.42;;;;;;;;;;5029888;28;20029;-90
2022/04/25 13:00:00;;;;;;;9.15;3.88;;;;;;;;;;5009893;28;20026;-89
2022/04/25 13:02:39;;;;;;;8.65;3.38;;;;;;;;;;5009548;28;20038;-89
2022/04/25 13:05:06;;;;;;;10.30;3.40;;;;;;;;;;5014720;28;20080;-88
2022/04/25 13:07:50;;;;;;;8.38;3.15;;;;;;;;;;5027711;28;20084;-88
2022/04/25 13:10:22;;;;;;;12.32;3.42;;;;;;;;;;5016584;28;20503;-88
2022/04/25 13:13:07;;;;;;;7.10;3.33;;;;;;;;;;5020178;28;20041;-88
2022/04/25 13:15:33;;;;;;;10.32;2.92;;;;;;;;;;5013782;28;20084;-88
2022/04/25 13:18:00;;;;;;;8.15;3.38;;;;;;;;;;5008725;28;20057;-89
2022/04/25 13:20:29;;;;;;;9.20;3.50;;;;;;;;;;5013077;28;20052;-89
2022/04/25 13:22:56;;;;;;;7.32;3.33;;;;;;;;;;5012472;28;20142;-88
2022/04/25 13:25:23;;;;;;;9.45;3.42;;;;;;;;;;5019261;28;20042;-88
2022/04/25 13:27:53;;;;;;;7.22;3.40;;;;;;;;;;5016134;28;20060;-88
2022/04/25 13:30:20;;;;;;;7.43;2.95;;;;;;;;;;5007717;28;20053;-88
2022/04/25 13:32:47;;;;;;;7.07;2.47;;;;;;;;;;5013001;28;20124;-88
2022/04/25 13:35:14;;;;;;;8.18;3.20;;;;;;;;;;5021123;28;20034;-88
2022/04/25 13:37:41;;;;;;;8.65;3.00;;;;;;;;;;5006947;28;20041;-88
2022/04/25 13:40:08;;;;;;;9.23;3.97;;;;;;;;;;5008926;28;20555;-88
2022/04/25 13:42:35;;;;;;;8.82;3.67;;;;;;;;;;5021434;28;20614;-89
2022/04/25 13:45:01;;;;;;;8.68;3.65;;;;;;;;;;5023126;28;20045;-89
2022/04/25 13:47:28;;;;;;;10.55;4.25;;;;;;;;;;5012392;28;20446;-88
2022/04/25 13:49:58;;;;;;;10.18;3.80;;;;;;;;;;5010875;28;20460;-88
2022/04/25 13:52:25;;;;;;;8.00;3.78;;;;;;;;;;5010469;28;20038;-89
2022/04/25 13:54:51;;;;;;;11.25;4.15;;;;;;;;;;5024644;28;20048;-88
2022/04/25 13:57:17;;;;;;;9.20;5.20;;;;;;;;;;5026990;28;20492;-89
2022/04/25 13:59:47;;;;;;;11.73;5.95;;;;;;;;;;5022481;28;20033;-89
2022/04/25 14:04:58;;;;;;;16.85;11.15;;;;;;;;;;5023114;28;20065;-89
2022/04/25 14:07:27;;;;;;;21.25;11.20;;;;;;;;;;5016046;28;20034;-89
2022/04/25 14:09:56;;;;;;;23.88;12.35;;;;;;;;;;5023414;28;20041;-90
2022/04/25 14:12:22;;;;;;;20.00;11.65;;;;;;;;;;5010599;28;20496;-89
2022/04/25 14:14:52;;;;;;;18.25;10.98;;;;;;;;;;5007058;28;20048;-88
2022/04/25 14:17:19;;;;;;;21.77;10.30;;;;;;;;;;5007235;28;20037;-89
2022/04/25 14:19:50;;;;;;;15.80;8.93;;;;;;;;;;5010692;28;20088;-89
2022/04/25 14:22:19;;;;;;;13.55;8.00;;;;;;;;;;5040253;28;20041;-89
2022/04/25 14:24:45;;;;;;;16.35;8.52;;;;;;;;;;5031361;28;20469;-89
2022/04/25 14:27:12;;;;;;;13.73;6.93;;;;;;;;;;5027870;28;20056;-89
2022/04/25 14:29:38;;;;;;;10.07;6.35;;;;;;;;;;5030890;28;20029;-89
2022/04/25 14:32:04;;;;;;;10.95;6.95;;;;;;;;;;5035144;28;20489;-89
2022/04/25 14:34:31;;;;;;;12.55;7.00;;;;;;;;;;5032596;28;20037;-89
2022/04/25 14:37:01;;;;;;;14.10;6.82;;;;;;;;;;5028464;28;20136;-89
2022/04/25 14:39:33;;;;;;;11.32;6.45;;;;;;;;;;5026764;28;20037;-89
2022/04/25 14:42:03;;;;;;;10.95;6.72;;;;;;;;;;5033314;28;20025;-87
2022/04/25 14:44:37;;;;;;;13.05;7.43;;;;;;;;;;5024339;28;20038;-87
2022/04/25 14:47:07;;;;;;;14.10;6.82;;;;;;;;;;5032210;28;20040;-86
2022/04/25 14:55:20;;;;;;;13.98;8.23;;;;;;;;;;5050184;28;20086;-88
2022/04/25 14:57:50;;;;;;;13.45;7.93;;;;;;;;;;5046273;28;20774;-87
2022/04/25 15:00:17;;;;;;;13.25;7.72;;;;;;;;;;5034350;28;20040;-87
2022/04/25 15:02:44;;;;;;;14.48;8.23;;;;;;;;;;5054822;28;20033;-87
2022/04/25 15:05:11;;;;;;;13.43;7.72;;;;;;;;;;5032671;28;20124;-87
2022/04/25 15:07:38;;;;;;;12.43;8.13;;;;;;;;;;5038028;28;20041;-87
2022/04/25 15:10:09;;;;;;;17.63;9.98;;;;;;;;;;5038080;28;21588;-88
2022/04/25 15:12:36;;;;;;;16.65;10.65;;;;;;;;;;5041488;28;20033;-88
2022/04/25 15:15:03;;;;;;;17.73;11.77;;;;;;;;;;5038156;28;20037;-87
2022/04/25 15:17:49;;;;;;;21.58;10.50;;;;;;;;;;5035060;28;20032;-88
2022/04/25 15:20:15;;;;;;;16.02;10.18;;;;;;;;;;5042604;28;20063;-88
2022/04/25 15:22:41;;;;;;;18.98;11.85;;;;;;;;;;5040298;28;20063;-88
2022/04/25 15:25:24;;;;;;;25.27;13.32;;;;;;;;;;5032180;28;20032;-88
2022/04/25 15:27:51;;;;;;;19.92;12.43;;;;;;;;;;5031760;28;20068;-88
2022/04/25 15:30:17;;;;;;;19.77;13.20;;;;;;;;;;5033245;28;20099;-88
2022/04/25 15:32:44;;;;;;;21.33;12.98;;;;;;;;;;5036036;28;20033;-86
2022/04/25 15:35:11;;;;;;;23.15;12.45;;;;;;;;;;5036359;28;20241;-89
2022/04/25 15:37:37;;;;;;;18.13;10.80;;;;;;;;;;5035118;28;20051;-88
2022/04/25 15:40:04;;;;;;;21.73;10.80;;;;;;;;;;5032845;28;20039;-88
2022/04/25 15:42:31;;;;;;;20.73;10.98;;;;;;;;;;5044697;28;20040;-88
2022/04/25 15:44:57;;;;;;;19.55;10.95;;;;;;;;;;5052249;28;20500;-88
2022/04/25 15:47:25;;;;;;;15.48;9.52;;;;;;;;;;5046465;28;20052;-87
2022/04/25 15:50:02;;;;;;;17.58;9.35;;;;;;;;;;5050025;28;20113;-87
2022/04/25 15:52:28;;;;;;;16.42;8.95;;;;;;;;;;5038405;28;20047;-89
2022/04/25 15:57:46;;;;;;;14.15;8.35;;;;;;;;;;5057369;28;20063;-89
2022/04/25 16:00:14;;;;;;;15.57;7.88;;;;;;;;;;5016780;28;20049;-89
2022/04/25 16:02:48;;;;;;;12.23;7.57;;;;;;;;;;5036467;28;20561;-89
2022/04/25 16:05:15;;;;;;;17.88;8.70;;;;;;;;;;5032831;28;20543;-88
2022/04/25 16:07:48;;;;;;;14.50;7.78;;;;;;;;;;5036925;28;20060;-89
2022/04/25 16:10:15;;;;;;;15.15;8.25;;;;;;;;;;5031114;28;20038;-89
2022/04/25 16:12:53;;;;;;;20.88;8.10;;;;;;;;;;5043393;28;20483;-89
2022/04/25 16:15:19;;;;;;;12.55;7.40;;;;;;;;;;5047636;28;20033;-89
2022/04/25 16:18:02;;;;;;;14.27;7.15;;;;;;;;;;5029098;28;20028;-90
2022/04/25 16:20:30;;;;;;;14.02;7.68;;;;;;;;;;5039946;28;20087;-90
2022/04/25 16:22:59;;;;;;;12.00;7.68;;;;;;;;;;5018357;28;20103;-89
2022/04/25 16:25:31;;;;;;;14.38;7.07;;;;;;;;;;5015002;28;20068;-88
2022/04/25 16:27:58;;;;;;;18.20;8.25;;;;;;;;;;5007981;28;20041;-88
2022/04/25 16:30:41;;;;;;;14.85;9.23;;;;;;;;;;5012919;28;20030;-89
2022/04/25 16:33:07;;;;;;;17.75;9.32;;;;;;;;;;5017497;28;20061;-89